Aérodrome :
LOGIN :

S'inscrire | Disclaimer

   EN    FR    IT 

 










Légende :    VFR   VFR Marginal   IFR   IFR Intensif   IFR Très Intensif
Visi : 
Plafond : 
>= 8 km
>= 3000ft
5 à 8 km
1000 à 3000 ft
1500m à 5 km
500 à 1000 ft
800 à 1500m
200 à 500 ft
< 800m
< 200 ft
Symboles :   Orages  Brouillard  Fortes neiges  Fortes précipitations  Vent > 20 kt
SIGMETs :   Divers  Orages  Givrage  Turbulence  Onde Orograph.  Cendres Volcan.







- Altitude de l'aérodrome : 1487 ft
- Code IATA : MUC


EDDM - München Franz Josef Strauss

DERNIER METAR :
  • 141820Z 20008KT CAVOK 04/M01 Q0999 NOSIG

METARs EXPIRÉS :
  • 141750Z 21010KT CAVOK 04/M02 Q0999 NOSIG
  • 141720Z 23010KT CAVOK 04/M01 Q0999 NOSIG
  • 141650Z 23012KT CAVOK 04/M02 Q1000 BECMG 23010KT
  • 141620Z 21012KT 9999 FEW034 BKN180 04/M02 Q1000 BECMG 23010KT
  • 141550Z 23013KT 9999 FEW034 BKN150 04/M02 Q1001 BECMG 23010KT

TAF TAF EDDM
Valide du 14 à 18h jusqu'au 16 à 00h UTC


141700Z 1418/1524 22010KT 9999 BKN030
TEMPO 1420/1503 4000 RASN BKN012
PROB40
TEMPO 1422/1503 2500 SNRA BKN008
BECMG 1502/1504 24015G25KT
PROB30
TEMPO 1503/1507 25020G35KT 2500 SHSNRA BKN008TCU
BECMG 1514/1516 24005KT
Pas de NOTAMs connus pour ce terrain.



MET'MAP, la Météo Aéronautique d'un coup d'oeil ! - Copyright ORBIFLY Décembre 2007 - Disclaimer

ORBIFLY MET'MAP TEAM :

Programmation & Développement : Alexandra Zaïnal
Conception & Développement : Baudouin d'Aumeries
Co-Programmation & Développement : Marc-Olivier Méhu
Soutien technique & logistique : Manuel Goepfert

Contact : metmap@orbifly.com




SOURCES & CREDITS :

   NOAA